This is the latest recevied weather packets stored in our database for station/object IW1QLH-13. If no packets are shown the sender has not sent any weather packets the latest 10 day(s).
| Time | Temp. | Humidity | Pressure | Rain* | Wind** | Luminosity | Snow |
|---|---|---|---|---|---|---|---|
| 1788347566 | 30° C | 11% | - | - | - | 815 W/m² | - |
| 1788346937 | 30° C | 11% | - | - | - | 972 W/m² | - |
| 1788346325 | 28.89° C | 11% | - | - | - | 643 W/m² | - |
| 1788345713 | 30° C | 11% | - | - | - | 429 W/m² | - |
| 1788345102 | 26.67° C | 11% | - | - | - | 214 W/m² | - |
| 1788344491 | 26.67° C | 11% | - | - | - | 243 W/m² | - |
| 1788343880 | 27.78° C | 11% | - | - | - | 400 W/m² | - |
| 1788343268 | 28.89° C | 11% | - | - | - | 772 W/m² | - |
| 1788342656 | 30° C | 11% | - | - | - | 743 W/m² | - |
| 1788342042 | 30° C | 11% | - | - | - | 729 W/m² | - |
| 1788341421 | 27.78° C | 11% | - | - | - | 214 W/m² | - |
| 1788340809 | 27.78° C | 11% | - | - | - | 300 W/m² | - |
| 1788340197 | 30° C | 11% | - | - | - | 657 W/m² | - |
| 1788339584 | 30° C | 11% | - | - | - | 614 W/m² | - |
| 1788338972 | 30.56° C | 11% | - | - | - | 557 W/m² | - |
| 1788338360 | 31.67° C | 11% | - | - | - | 529 W/m² | - |
| 1788337748 | 30.56° C | 11% | - | - | - | 500 W/m² | - |
| 1788337136 | 27.78° C | 11% | - | - | - | 157 W/m² | - |
| 1788336525 | 28.89° C | 11% | - | - | - | 214 W/m² | - |
| 1788335913 | 28.89° C | 11% | - | - | - | 214 W/m² | - |
| 1788335114 | 30° C | 11% | - | - | - | 200 W/m² | - |
| 1788334503 | 30° C | 11% | - | - | - | 228 W/m² | - |
| 1788333891 | 28.89° C | 11% | - | - | - | 286 W/m² | - |
| 1788333036 | 27.78° C | 11% | - | - | - | 185 W/m² | - |
| 1788332425 | 26.67° C | 11% | - | - | - | 114 W/m² | - |
* Rain since midnight (hover to see other rain measurements)
** Current wind speed in m/s (hover to see current wind gust speed)